Casa De Campo International Airport


Codes: MDLR/LRM
Name: Casa De Campo International Airport
City: La Romana
Country: Dominican Republic
Elevation: 240 ft.
Wikipedia:

Photos at Casa De Campo International Airport


   Photos courtesy of SpottingLog. You can add your own sightings and photos by signing up for a free trial today.



CS-TDI, 23-Jan-2010
© Oliver Perry


Weather at Casa De Campo International Airport


Time (UTC)DescriptionTempratureWindCloud coverageVisibilityPressureHumidity
17-Jun-2024 06:00Overcast Clouds25°C2 mph, SE100%10000m1013hPa85%
17-Jun-2024 09:00Overcast Clouds24°C2 mph, E100%10000m1013hPa86%
17-Jun-2024 12:00Overcast Clouds26°C2 mph, E100%10000m1014hPa81%
17-Jun-2024 15:00Overcast Clouds30°C2 mph, S100%10000m1013hPa61%
17-Jun-2024 18:00Light Rain30°C11 mph, S100%10000m1012hPa65%
17-Jun-2024 21:00Moderate Rain28°C2 mph, SE100%10000m1012hPa70%
18-Jun-2024 00:00Light Rain26°C7 mph, NE100%10000m1012hPa85%
18-Jun-2024 03:00Light Rain25°C4 mph, NE100%10000m1013hPa86%
18-Jun-2024 06:00Overcast Clouds24°C4 mph, NE100%10000m1012hPa87%
18-Jun-2024 09:00Overcast Clouds24°C4 mph, NE100%10000m1012hPa90%
18-Jun-2024 12:00Overcast Clouds26°C4 mph, NE100%10000m1013hPa83%
18-Jun-2024 15:00Light Rain29°C2 mph, E100%10000m1012hPa66%
18-Jun-2024 18:00Light Rain30°C4 mph, SE98%10000m1012hPa64%
18-Jun-2024 21:00Light Rain30°C7 mph, SE95%10000m1010hPa65%
19-Jun-2024 00:00Light Rain26°C9 mph, E97%10000m1012hPa80%
19-Jun-2024 03:00Overcast Clouds25°C7 mph, NE100%10000m1013hPa85%
19-Jun-2024 06:00Overcast Clouds24°C4 mph, NE97%10000m1012hPa87%
19-Jun-2024 09:00Overcast Clouds24°C4 mph, E100%10000m1012hPa91%
19-Jun-2024 12:00Overcast Clouds27°C7 mph, E99%10000m1013hPa80%
19-Jun-2024 15:00Light Rain31°C13 mph, SE88%10000m1014hPa56%
19-Jun-2024 18:00Light Rain28°C16 mph, E89%10000m1013hPa67%
19-Jun-2024 21:00Light Rain23°C4 mph, E100%10000m1012hPa88%
20-Jun-2024 00:00Light Rain23°C7 mph, NE100%10000m1014hPa90%
20-Jun-2024 03:00Light Rain24°C4 mph, NE100%10000m1014hPa91%
20-Jun-2024 06:00Light Rain24°C7 mph, NE99%10000m1013hPa92%
20-Jun-2024 09:00Light Rain24°C7 mph, E99%10000m1013hPa92%
20-Jun-2024 12:00Light Rain26°C7 mph, NE100%10000m1014hPa86%
20-Jun-2024 15:00Light Rain31°C11 mph, E99%10000m1015hPa62%
20-Jun-2024 18:00Light Rain31°C9 mph, SE100%10000m1014hPa60%
20-Jun-2024 21:00Moderate Rain28°C7 mph, NE100%7942m1013hPa74%
21-Jun-2024 00:00Light Rain25°C9 mph, NE100%10000m1015hPa86%
21-Jun-2024 03:00Overcast Clouds25°C7 mph, NE98%10000m1016hPa90%
21-Jun-2024 06:00Light Rain24°C9 mph, NE95%10000m1014hPa94%
21-Jun-2024 09:00Overcast Clouds24°C7 mph, NE100%10000m1014hPa93%
21-Jun-2024 12:00Overcast Clouds27°C11 mph, NE100%10000m1015hPa85%
21-Jun-2024 15:00Overcast Clouds31°C11 mph, E94%10000m1015hPa64%
21-Jun-2024 18:00Light Rain30°C13 mph, E97%10000m1015hPa66%
21-Jun-2024 21:00Light Rain29°C11 mph, E100%10000m1014hPa70%
22-Jun-2024 00:00Overcast Clouds26°C9 mph, E100%10000m1015hPa82%
22-Jun-2024 03:00Overcast Clouds26°C4 mph, NE100%10000m1016hPa86%